sensor_id;sensor_type;location;lat;lon;timestamp;P1;durP1;ratioP1;P2;durP2;ratioP2
58310;SDS011;45001;52.218;5.154;2022-09-09T13:28:03;4.50;;;2.05;;
58310;SDS011;45001;52.218;5.154;2022-09-09T13:30:30;4.63;;;1.40;;
58310;SDS011;45001;52.218;5.154;2022-09-09T13:33:02;6.05;;;2.22;;
58310;SDS011;45001;52.218;5.154;2022-09-09T13:35:45;3.25;;;1.35;;
58310;SDS011;45001;52.218;5.154;2022-09-09T13:38:14;11.85;;;2.55;;
58310;SDS011;45001;52.218;5.154;2022-09-09T13:40:51;4.90;;;1.50;;
58310;SDS011;45001;52.218;5.154;2022-09-09T13:43:20;4.45;;;1.52;;
58310;SDS011;45001;52.218;5.154;2022-09-09T13:45:57;3.00;;;1.30;;
58310;SDS011;45001;52.218;5.154;2022-09-09T13:50:59;3.53;;;1.30;;
58310;SDS011;45001;52.218;5.154;2022-09-09T13:53:28;4.80;;;1.30;;
58310;SDS011;45001;52.218;5.154;2022-09-09T13:55:53;2.30;;;0.80;;
58310;SDS011;45001;52.218;5.154;2022-09-09T13:58:19;3.88;;;1.10;;
58310;SDS011;45001;52.218;5.154;2022-09-09T14:00:44;5.03;;;1.65;;
58310;SDS011;45001;52.218;5.154;2022-09-09T14:03:10;3.13;;;1.38;;
58310;SDS011;45001;52.218;5.154;2022-09-09T14:05:36;2.85;;;1.15;;
58310;SDS011;45001;52.218;5.154;2022-09-09T14:08:05;6.00;;;1.20;;
58310;SDS011;45001;52.218;5.154;2022-09-09T14:10:32;5.00;;;1.35;;
58310;SDS011;45001;52.218;5.154;2022-09-09T14:13:00;2.10;;;1.00;;
58310;SDS011;45001;52.218;5.154;2022-09-09T14:15:26;3.63;;;1.05;;
58310;SDS011;45001;52.218;5.154;2022-09-09T14:17:52;3.40;;;1.23;;
58310;SDS011;45001;52.218;5.154;2022-09-09T14:20:17;6.07;;;1.50;;
58310;SDS011;45001;52.218;5.154;2022-09-09T14:22:45;5.22;;;1.48;;
58310;SDS011;45001;52.218;5.154;2022-09-09T14:25:11;3.35;;;1.30;;
58310;SDS011;45001;52.218;5.154;2022-09-09T14:27:38;4.20;;;1.20;;
58310;SDS011;45001;52.218;5.154;2022-09-09T14:30:04;3.15;;;1.23;;
58310;SDS011;45001;52.218;5.154;2022-09-09T14:32:30;2.83;;;1.10;;
58310;SDS011;45001;52.218;5.154;2022-09-09T14:34:56;4.00;;;1.10;;
58310;SDS011;45001;52.218;5.154;2022-09-09T14:37:21;3.83;;;1.00;;
58310;SDS011;45001;52.218;5.154;2022-09-09T14:39:46;2.55;;;1.00;;
58310;SDS011;45001;52.218;5.154;2022-09-09T14:42:12;2.67;;;1.10;;
58310;SDS011;45001;52.218;5.154;2022-09-09T14:44:41;2.47;;;1.00;;
58310;SDS011;45001;52.218;5.154;2022-09-09T14:47:07;2.40;;;1.00;;
58310;SDS011;45001;52.218;5.154;2022-09-09T14:49:33;2.95;;;1.15;;
58310;SDS011;45001;52.218;5.154;2022-09-09T14:52:02;5.10;;;1.25;;
58310;SDS011;45001;52.218;5.154;2022-09-09T14:54:28;3.42;;;0.95;;
58310;SDS011;45001;52.218;5.154;2022-09-09T14:56:53;3.88;;;1.33;;
58310;SDS011;45001;52.218;5.154;2022-09-09T14:59:19;3.92;;;1.30;;
58310;SDS011;45001;52.218;5.154;2022-09-09T15:01:44;4.50;;;0.93;;
58310;SDS011;45001;52.218;5.154;2022-09-09T15:04:10;2.13;;;0.98;;
58310;SDS011;45001;52.218;5.154;2022-09-09T15:06:37;3.13;;;1.00;;
58310;SDS011;45001;52.218;5.154;2022-09-09T15:09:04;4.18;;;0.90;;
58310;SDS011;45001;52.218;5.154;2022-09-09T15:11:33;2.60;;;1.00;;
58310;SDS011;45001;52.218;5.154;2022-09-09T15:14:02;4.45;;;0.88;;
58310;SDS011;45001;52.218;5.154;2022-09-09T15:16:28;7.75;;;1.20;;
58310;SDS011;45001;52.218;5.154;2022-09-09T15:18:56;3.80;;;1.10;;
58310;SDS011;45001;52.218;5.154;2022-09-09T15:21:24;2.45;;;1.00;;
58310;SDS011;45001;52.218;5.154;2022-09-09T15:23:55;3.63;;;1.25;;
58310;SDS011;45001;52.218;5.154;2022-09-09T15:26:21;3.72;;;0.98;;
58310;SDS011;45001;52.218;5.154;2022-09-09T15:28:47;3.35;;;1.10;;
58310;SDS011;45001;52.218;5.154;2022-09-09T15:31:21;4.15;;;1.20;;
58310;SDS011;45001;52.218;5.154;2022-09-09T15:33:54;3.58;;;0.70;;
58310;SDS011;45001;52.218;5.154;2022-09-09T15:36:27;3.30;;;0.98;;
58310;SDS011;45001;52.218;5.154;2022-09-09T15:38:57;4.85;;;1.00;;
58310;SDS011;45001;52.218;5.154;2022-09-09T15:41:23;2.83;;;1.10;;
58310;SDS011;45001;52.218;5.154;2022-09-09T15:43:49;2.05;;;0.90;;
58310;SDS011;45001;52.218;5.154;2022-09-09T15:48:42;1.83;;;1.00;;
58310;SDS011;45001;52.218;5.154;2022-09-09T15:51:09;2.97;;;1.00;;
58310;SDS011;45001;52.218;5.154;2022-09-09T15:53:35;3.15;;;0.90;;
58310;SDS011;45001;52.218;5.154;2022-09-09T15:56:02;2.08;;;0.88;;
58310;SDS011;45001;52.218;5.154;2022-09-09T15:58:29;2.13;;;1.00;;
58310;SDS011;45001;52.218;5.154;2022-09-09T16:01:01;1.98;;;0.90;;
58310;SDS011;45001;52.218;5.154;2022-09-09T16:03:34;2.67;;;0.93;;
58310;SDS011;45001;52.218;5.154;2022-09-09T16:08:25;3.87;;;1.03;;
58310;SDS011;45001;52.218;5.154;2022-09-09T16:10:55;2.72;;;0.98;;
58310;SDS011;45001;52.218;5.154;2022-09-09T16:13:21;2.55;;;1.02;;
58310;SDS011;45001;52.218;5.154;2022-09-09T16:15:53;2.17;;;0.80;;
58310;SDS011;45001;52.218;5.154;2022-09-09T16:18:19;3.00;;;0.90;;
58310;SDS011;45001;52.218;5.154;2022-09-09T16:20:52;2.28;;;0.90;;
58310;SDS011;45001;52.218;5.154;2022-09-09T16:23:18;2.25;;;0.70;;
58310;SDS011;45001;52.218;5.154;2022-09-09T16:25:44;2.90;;;1.00;;
58310;SDS011;45001;52.218;5.154;2022-09-09T16:28:18;3.95;;;1.20;;
58310;SDS011;45001;52.218;5.154;2022-09-09T16:30:43;2.42;;;0.90;;
58310;SDS011;45001;52.218;5.154;2022-09-09T16:33:08;1.50;;;0.73;;
58310;SDS011;45001;52.218;5.154;2022-09-09T16:35:36;2.03;;;1.00;;
58310;SDS011;45001;52.218;5.154;2022-09-09T16:38:02;2.20;;;0.80;;
58310;SDS011;45001;52.218;5.154;2022-09-09T16:40:27;2.25;;;1.00;;
58310;SDS011;45001;52.218;5.154;2022-09-09T16:42:52;1.98;;;0.80;;
58310;SDS011;45001;52.218;5.154;2022-09-09T16:45:18;2.60;;;0.82;;
58310;SDS011;45001;52.218;5.154;2022-09-09T16:47:43;1.90;;;0.70;;
58310;SDS011;45001;52.218;5.154;2022-09-09T16:50:09;3.30;;;0.82;;
58310;SDS011;45001;52.218;5.154;2022-09-09T16:52:34;3.17;;;1.13;;
58310;SDS011;45001;52.218;5.154;2022-09-09T16:54:59;2.13;;;0.77;;
58310;SDS011;45001;52.218;5.154;2022-09-09T16:57:25;2.25;;;0.80;;
58310;SDS011;45001;52.218;5.154;2022-09-09T16:59:50;2.83;;;0.93;;
58310;SDS011;45001;52.218;5.154;2022-09-09T17:02:18;1.58;;;0.85;;
58310;SDS011;45001;52.218;5.154;2022-09-09T17:04:44;2.53;;;0.83;;
58310;SDS011;45001;52.218;5.154;2022-09-09T17:07:09;2.38;;;0.95;;
58310;SDS011;45001;52.218;5.154;2022-09-09T17:09:35;2.25;;;0.90;;
58310;SDS011;45001;52.218;5.154;2022-09-09T17:12:00;1.60;;;0.70;;
58310;SDS011;45001;52.218;5.154;2022-09-09T17:14:26;3.08;;;1.05;;
58310;SDS011;45001;52.218;5.154;2022-09-09T17:16:51;2.05;;;0.80;;
58310;SDS011;45001;52.218;5.154;2022-09-09T17:19:17;2.75;;;0.80;;
58310;SDS011;45001;52.218;5.154;2022-09-09T17:21:42;3.05;;;1.00;;
58310;SDS011;45001;52.218;5.154;2022-09-09T17:24:08;2.85;;;1.00;;
58310;SDS011;45001;52.218;5.154;2022-09-09T17:26:33;3.72;;;0.80;;
58310;SDS011;45001;52.218;5.154;2022-09-09T17:28:59;1.55;;;0.70;;
58310;SDS011;45001;52.218;5.154;2022-09-09T17:31:26;1.35;;;0.63;;
58310;SDS011;45001;52.218;5.154;2022-09-09T17:33:52;2.00;;;0.95;;
58310;SDS011;45001;52.218;5.154;2022-09-09T17:36:19;2.33;;;0.80;;
58310;SDS011;45001;52.218;5.154;2022-09-09T17:38:47;2.40;;;0.80;;
58310;SDS011;45001;52.218;5.154;2022-09-09T17:41:14;2.38;;;0.70;;
58310;SDS011;45001;52.218;5.154;2022-09-09T17:43:41;2.08;;;0.75;;
58310;SDS011;45001;52.218;5.154;2022-09-09T17:46:18;1.88;;;1.00;;
58310;SDS011;45001;52.218;5.154;2022-09-09T17:48:46;3.03;;;0.98;;
58310;SDS011;45001;52.218;5.154;2022-09-09T17:51:16;1.08;;;0.77;;
58310;SDS011;45001;52.218;5.154;2022-09-09T17:53:45;2.65;;;0.90;;
58310;SDS011;45001;52.218;5.154;2022-09-09T17:56:14;2.15;;;0.90;;
58310;SDS011;45001;52.218;5.154;2022-09-09T17:58:40;2.60;;;0.85;;
58310;SDS011;45001;52.218;5.154;2022-09-09T18:01:07;2.65;;;1.00;;
58310;SDS011;45001;52.218;5.154;2022-09-09T18:03:35;2.17;;;0.80;;
58310;SDS011;45001;52.218;5.154;2022-09-09T18:06:05;2.10;;;0.80;;
58310;SDS011;45001;52.218;5.154;2022-09-09T18:08:32;3.25;;;0.80;;
58310;SDS011;45001;52.218;5.154;2022-09-09T18:10:59;3.80;;;1.00;;
58310;SDS011;45001;52.218;5.154;2022-09-09T18:13:25;2.15;;;0.95;;
58310;SDS011;45001;52.218;5.154;2022-09-09T18:15:51;2.78;;;1.48;;
58310;SDS011;45001;52.218;5.154;2022-09-09T18:18:16;2.53;;;1.10;;
58310;SDS011;45001;52.218;5.154;2022-09-09T18:20:41;3.00;;;1.05;;
58310;SDS011;45001;52.218;5.154;2022-09-09T18:23:08;1.92;;;1.10;;
58310;SDS011;45001;52.218;5.154;2022-09-09T18:25:39;2.67;;;1.50;;
58310;SDS011;45001;52.218;5.154;2022-09-09T18:28:05;2.25;;;1.20;;
58310;SDS011;45001;52.218;5.154;2022-09-09T18:30:31;2.83;;;1.30;;
58310;SDS011;45001;52.218;5.154;2022-09-09T18:32:57;3.47;;;1.38;;
58310;SDS011;45001;52.218;5.154;2022-09-09T18:35:22;2.85;;;1.30;;
58310;SDS011;45001;52.218;5.154;2022-09-09T18:37:48;2.78;;;1.65;;
58310;SDS011;45001;52.218;5.154;2022-09-09T18:40:13;2.17;;;1.30;;
58310;SDS011;45001;52.218;5.154;2022-09-09T18:42:38;3.65;;;1.90;;
58310;SDS011;45001;52.218;5.154;2022-09-09T18:45:04;3.53;;;1.65;;
58310;SDS011;45001;52.218;5.154;2022-09-09T18:47:29;2.25;;;1.38;;
58310;SDS011;45001;52.218;5.154;2022-09-09T18:49:55;3.00;;;1.90;;
58310;SDS011;45001;52.218;5.154;2022-09-09T18:52:20;2.80;;;1.42;;
58310;SDS011;45001;52.218;5.154;2022-09-09T18:54:45;3.60;;;1.60;;
58310;SDS011;45001;52.218;5.154;2022-09-09T18:57:12;3.28;;;2.00;;
58310;SDS011;45001;52.218;5.154;2022-09-09T18:59:37;4.07;;;1.90;;
58310;SDS011;45001;52.218;5.154;2022-09-09T19:02:03;3.67;;;1.90;;
58310;SDS011;45001;52.218;5.154;2022-09-09T19:04:29;3.58;;;1.52;;
58310;SDS011;45001;52.218;5.154;2022-09-09T19:06:56;3.43;;;1.60;;
58310;SDS011;45001;52.218;5.154;2022-09-09T19:09:23;3.47;;;2.22;;
58310;SDS011;45001;52.218;5.154;2022-09-09T19:11:50;4.10;;;1.98;;
58310;SDS011;45001;52.218;5.154;2022-09-09T19:14:16;3.00;;;1.50;;
58310;SDS011;45001;52.218;5.154;2022-09-09T19:16:42;3.45;;;1.85;;
58310;SDS011;45001;52.218;5.154;2022-09-09T19:19:13;3.85;;;1.80;;
58310;SDS011;45001;52.218;5.154;2022-09-09T19:21:40;2.70;;;1.80;;
58310;SDS011;45001;52.218;5.154;2022-09-09T19:26:42;2.85;;;1.75;;
58310;SDS011;45001;52.218;5.154;2022-09-09T19:29:11;4.95;;;2.08;;
58310;SDS011;45001;52.218;5.154;2022-09-09T19:31:41;2.97;;;1.73;;
58310;SDS011;45001;52.218;5.154;2022-09-09T19:34:07;2.70;;;1.50;;
58310;SDS011;45001;52.218;5.154;2022-09-09T19:36:33;2.80;;;1.80;;
58310;SDS011;45001;52.218;5.154;2022-09-09T19:38:59;3.05;;;1.60;;
58310;SDS011;45001;52.218;5.154;2022-09-09T19:41:25;2.72;;;1.75;;
58310;SDS011;45001;52.218;5.154;2022-09-09T19:43:54;2.78;;;1.80;;
58310;SDS011;45001;52.218;5.154;2022-09-09T19:46:23;3.22;;;1.60;;
58310;SDS011;45001;52.218;5.154;2022-09-09T19:48:50;3.25;;;1.50;;
58310;SDS011;45001;52.218;5.154;2022-09-09T19:51:17;2.90;;;1.75;;
58310;SDS011;45001;52.218;5.154;2022-09-09T19:53:48;3.10;;;1.60;;
58310;SDS011;45001;52.218;5.154;2022-09-09T19:56:16;3.03;;;1.73;;
58310;SDS011;45001;52.218;5.154;2022-09-09T19:58:42;3.03;;;1.88;;
58310;SDS011;45001;52.218;5.154;2022-09-09T20:01:14;2.95;;;1.77;;
58310;SDS011;45001;52.218;5.154;2022-09-09T20:03:43;3.58;;;1.77;;
58310;SDS011;45001;52.218;5.154;2022-09-09T20:06:11;2.47;;;1.50;;
58310;SDS011;45001;52.218;5.154;2022-09-09T20:08:38;3.78;;;1.70;;
58310;SDS011;45001;52.218;5.154;2022-09-09T20:11:05;3.35;;;1.77;;
58310;SDS011;45001;52.218;5.154;2022-09-09T20:13:32;3.63;;;1.70;;
58310;SDS011;45001;52.218;5.154;2022-09-09T20:16:02;2.88;;;1.60;;
58310;SDS011;45001;52.218;5.154;2022-09-09T20:18:30;8.43;;;1.83;;
58310;SDS011;45001;52.218;5.154;2022-09-09T20:21:00;2.70;;;1.58;;
58310;SDS011;45001;52.218;5.154;2022-09-09T20:23:31;3.17;;;1.70;;
58310;SDS011;45001;52.218;5.154;2022-09-09T20:26:01;2.95;;;1.73;;
58310;SDS011;45001;52.218;5.154;2022-09-09T20:28:28;2.70;;;1.55;;
58310;SDS011;45001;52.218;5.154;2022-09-09T20:30:53;2.15;;;1.20;;
58310;SDS011;45001;52.218;5.154;2022-09-09T20:33:19;3.88;;;1.70;;
58310;SDS011;45001;52.218;5.154;2022-09-09T20:35:45;2.60;;;1.52;;
58310;SDS011;45001;52.218;5.154;2022-09-09T20:38:11;1.77;;;1.17;;
58310;SDS011;45001;52.218;5.154;2022-09-09T20:40:37;3.17;;;1.70;;
58310;SDS011;45001;52.218;5.154;2022-09-09T20:43:03;2.67;;;1.20;;
58310;SDS011;45001;52.218;5.154;2022-09-09T20:45:28;2.35;;;1.77;;
58310;SDS011;45001;52.218;5.154;2022-09-09T20:47:54;3.28;;;1.50;;
58310;SDS011;45001;52.218;5.154;2022-09-09T20:50:21;3.40;;;1.35;;
58310;SDS011;45001;52.218;5.154;2022-09-09T20:52:46;3.00;;;1.60;;
58310;SDS011;45001;52.218;5.154;2022-09-09T20:55:12;4.18;;;1.70;;
58310;SDS011;45001;52.218;5.154;2022-09-09T20:57:37;3.22;;;1.45;;
58310;SDS011;45001;52.218;5.154;2022-09-09T21:00:03;2.55;;;1.20;;
58310;SDS011;45001;52.218;5.154;2022-09-09T21:02:29;3.42;;;1.60;;
58310;SDS011;45001;52.218;5.154;2022-09-09T21:04:55;3.13;;;1.58;;
58310;SDS011;45001;52.218;5.154;2022-09-09T21:07:20;2.97;;;1.33;;
58310;SDS011;45001;52.218;5.154;2022-09-09T21:09:45;6.07;;;1.95;;
58310;SDS011;45001;52.218;5.154;2022-09-09T21:12:10;3.92;;;1.70;;
58310;SDS011;45001;52.218;5.154;2022-09-09T21:14:36;2.63;;;1.35;;
58310;SDS011;45001;52.218;5.154;2022-09-09T21:17:01;1.98;;;1.20;;
58310;SDS011;45001;52.218;5.154;2022-09-09T21:19:27;3.28;;;1.40;;
58310;SDS011;45001;52.218;5.154;2022-09-09T21:21:52;2.55;;;1.33;;
58310;SDS011;45001;52.218;5.154;2022-09-09T21:24:18;3.33;;;1.70;;
58310;SDS011;45001;52.218;5.154;2022-09-09T21:26:43;3.30;;;1.38;;
58310;SDS011;45001;52.218;5.154;2022-09-09T21:29:08;3.97;;;1.58;;
58310;SDS011;45001;52.218;5.154;2022-09-09T21:31:34;2.50;;;1.38;;
58310;SDS011;45001;52.218;5.154;2022-09-09T21:33:59;2.63;;;1.40;;
58310;SDS011;45001;52.218;5.154;2022-09-09T21:36:24;1.92;;;1.38;;
58310;SDS011;45001;52.218;5.154;2022-09-09T21:38:52;3.17;;;1.23;;
58310;SDS011;45001;52.218;5.154;2022-09-09T21:41:17;4.38;;;1.40;;
58310;SDS011;45001;52.218;5.154;2022-09-09T21:43:43;2.72;;;1.40;;
58310;SDS011;45001;52.218;5.154;2022-09-09T21:46:12;3.47;;;1.20;;
58310;SDS011;45001;52.218;5.154;2022-09-09T21:48:41;3.35;;;1.45;;
58310;SDS011;45001;52.218;5.154;2022-09-09T21:51:09;3.33;;;1.33;;
58310;SDS011;45001;52.218;5.154;2022-09-09T21:53:35;3.67;;;1.25;;
58310;SDS011;45001;52.218;5.154;2022-09-09T21:56:02;4.90;;;1.38;;
58310;SDS011;45001;52.218;5.154;2022-09-09T21:58:32;3.05;;;1.40;;
58310;SDS011;45001;52.218;5.154;2022-09-09T22:00:58;2.30;;;1.30;;
58310;SDS011;45001;52.218;5.154;2022-09-09T22:03:24;4.55;;;1.58;;
58310;SDS011;45001;52.218;5.154;2022-09-09T22:05:50;3.00;;;1.20;;
58310;SDS011;45001;52.218;5.154;2022-09-09T22:08:15;2.05;;;1.13;;
58310;SDS011;45001;52.218;5.154;2022-09-09T22:10:42;2.17;;;1.25;;
58310;SDS011;45001;52.218;5.154;2022-09-09T22:13:13;3.10;;;1.30;;
58310;SDS011;45001;52.218;5.154;2022-09-09T22:15:43;2.47;;;1.17;;
58310;SDS011;45001;52.218;5.154;2022-09-09T22:18:09;1.92;;;1.33;;
58310;SDS011;45001;52.218;5.154;2022-09-09T22:20:38;2.30;;;1.13;;
58310;SDS011;45001;52.218;5.154;2022-09-09T22:23:05;2.45;;;1.60;;
58310;SDS011;45001;52.218;5.154;2022-09-09T22:25:32;2.20;;;1.23;;
58310;SDS011;45001;52.218;5.154;2022-09-09T22:27:59;3.88;;;1.38;;
58310;SDS011;45001;52.218;5.154;2022-09-09T22:30:25;2.25;;;1.15;;
58310;SDS011;45001;52.218;5.154;2022-09-09T22:32:52;2.47;;;1.20;;
58310;SDS011;45001;52.218;5.154;2022-09-09T22:35:17;2.35;;;1.10;;
58310;SDS011;45001;52.218;5.154;2022-09-09T22:37:43;1.70;;;0.98;;
58310;SDS011;45001;52.218;5.154;2022-09-09T22:40:08;4.88;;;1.70;;
58310;SDS011;45001;52.218;5.154;2022-09-09T22:42:34;3.65;;;1.33;;
58310;SDS011;45001;52.218;5.154;2022-09-09T22:44:59;2.97;;;1.35;;
58310;SDS011;45001;52.218;5.154;2022-09-09T22:47:24;2.40;;;1.20;;
58310;SDS011;45001;52.218;5.154;2022-09-09T22:49:50;4.80;;;1.58;;
58310;SDS011;45001;52.218;5.154;2022-09-09T22:52:16;3.20;;;1.45;;
58310;SDS011;45001;52.218;5.154;2022-09-09T22:54:41;3.60;;;1.55;;
58310;SDS011;45001;52.218;5.154;2022-09-09T22:57:07;3.83;;;1.50;;
58310;SDS011;45001;52.218;5.154;2022-09-09T22:59:33;2.88;;;1.23;;
58310;SDS011;45001;52.218;5.154;2022-09-09T23:01:59;3.63;;;1.25;;
58310;SDS011;45001;52.218;5.154;2022-09-09T23:04:25;3.75;;;1.20;;
58310;SDS011;45001;52.218;5.154;2022-09-09T23:06:51;3.97;;;1.38;;
58310;SDS011;45001;52.218;5.154;2022-09-09T23:09:17;3.97;;;1.25;;
58310;SDS011;45001;52.218;5.154;2022-09-09T23:11:42;3.60;;;1.40;;
58310;SDS011;45001;52.218;5.154;2022-09-09T23:14:09;2.45;;;1.40;;
58310;SDS011;45001;52.218;5.154;2022-09-09T23:16:37;4.32;;;1.88;;
58310;SDS011;45001;52.218;5.154;2022-09-09T23:19:04;2.65;;;1.10;;
58310;SDS011;45001;52.218;5.154;2022-09-09T23:21:36;3.45;;;1.50;;
58310;SDS011;45001;52.218;5.154;2022-09-09T23:24:02;2.45;;;1.63;;
58310;SDS011;45001;52.218;5.154;2022-09-09T23:26:29;3.03;;;1.40;;
58310;SDS011;45001;52.218;5.154;2022-09-09T23:28:54;2.35;;;1.30;;
58310;SDS011;45001;52.218;5.154;2022-09-09T23:31:22;3.40;;;1.23;;
58310;SDS011;45001;52.218;5.154;2022-09-09T23:33:49;2.45;;;1.08;;
58310;SDS011;45001;52.218;5.154;2022-09-09T23:36:18;3.88;;;1.40;;
58310;SDS011;45001;52.218;5.154;2022-09-09T23:38:45;3.10;;;1.75;;
58310;SDS011;45001;52.218;5.154;2022-09-09T23:41:12;2.50;;;1.48;;
58310;SDS011;45001;52.218;5.154;2022-09-09T23:43:39;3.92;;;1.77;;
58310;SDS011;45001;52.218;5.154;2022-09-09T23:46:05;3.08;;;1.30;;
58310;SDS011;45001;52.218;5.154;2022-09-09T23:48:32;3.13;;;1.65;;
58310;SDS011;45001;52.218;5.154;2022-09-09T23:50:59;2.75;;;1.63;;
58310;SDS011;45001;52.218;5.154;2022-09-09T23:53:25;3.25;;;1.50;;
58310;SDS011;45001;52.218;5.154;2022-09-09T23:55:51;3.38;;;1.48;;
58310;SDS011;45001;52.218;5.154;2022-09-09T23:58:17;4.25;;;1.83;;
